sensor_id;sensor_type;location;lat;lon;timestamp;P1;durP1;ratioP1;P2;durP2;ratioP2
583;SDS011;27024;54.068;12.116;2024-02-21T00:01:07;37.40;;;11.55;;
583;SDS011;27024;54.068;12.116;2024-02-21T00:03:35;35.95;;;11.38;;
583;SDS011;27024;54.068;12.116;2024-02-21T00:06:02;37.13;;;12.00;;
583;SDS011;27024;54.068;12.116;2024-02-21T00:08:30;35.17;;;11.85;;
583;SDS011;27024;54.068;12.116;2024-02-21T00:10:57;40.25;;;12.50;;
583;SDS011;27024;54.068;12.116;2024-02-21T00:13:25;24.00;;;7.07;;
583;SDS011;27024;54.068;12.116;2024-02-21T00:15:52;44.78;;;12.18;;
583;SDS011;27024;54.068;12.116;2024-02-21T00:18:19;37.63;;;13.13;;
583;SDS011;27024;54.068;12.116;2024-02-21T00:20:46;32.05;;;11.63;;
583;SDS011;27024;54.068;12.116;2024-02-21T00:23:13;34.63;;;12.65;;
583;SDS011;27024;54.068;12.116;2024-02-21T00:25:40;37.40;;;12.15;;
583;SDS011;27024;54.068;12.116;2024-02-21T00:28:08;34.75;;;10.50;;
583;SDS011;27024;54.068;12.116;2024-02-21T00:30:35;38.08;;;12.32;;
583;SDS011;27024;54.068;12.116;2024-02-21T00:33:04;37.72;;;12.73;;
583;SDS011;27024;54.068;12.116;2024-02-21T00:35:31;35.25;;;13.57;;
583;SDS011;27024;54.068;12.116;2024-02-21T00:37:58;41.85;;;14.10;;
583;SDS011;27024;54.068;12.116;2024-02-21T00:40:26;50.17;;;13.77;;
583;SDS011;27024;54.068;12.116;2024-02-21T00:42:53;42.33;;;14.60;;
583;SDS011;27024;54.068;12.116;2024-02-21T00:45:20;27.30;;;9.45;;
583;SDS011;27024;54.068;12.116;2024-02-21T00:47:47;36.70;;;13.38;;
583;SDS011;27024;54.068;12.116;2024-02-21T00:50:14;43.25;;;14.30;;
583;SDS011;27024;54.068;12.116;2024-02-21T00:52:41;46.22;;;14.02;;
583;SDS011;27024;54.068;12.116;2024-02-21T00:55:09;37.72;;;13.75;;
583;SDS011;27024;54.068;12.116;2024-02-21T00:57:36;43.95;;;14.77;;
583;SDS011;27024;54.068;12.116;2024-02-21T01:00:03;45.95;;;15.88;;
583;SDS011;27024;54.068;12.116;2024-02-21T01:02:30;41.20;;;14.60;;
583;SDS011;27024;54.068;12.116;2024-02-21T01:04:58;29.17;;;10.73;;
583;SDS011;27024;54.068;12.116;2024-02-21T01:07:25;30.40;;;11.55;;
583;SDS011;27024;54.068;12.116;2024-02-21T01:09:53;43.63;;;14.52;;
583;SDS011;27024;54.068;12.116;2024-02-21T01:12:20;48.33;;;16.65;;
583;SDS011;27024;54.068;12.116;2024-02-21T01:14:47;45.20;;;16.35;;
583;SDS011;27024;54.068;12.116;2024-02-21T01:17:15;48.30;;;16.45;;
583;SDS011;27024;54.068;12.116;2024-02-21T01:19:43;49.47;;;15.23;;
583;SDS011;27024;54.068;12.116;2024-02-21T01:22:10;40.33;;;15.18;;
583;SDS011;27024;54.068;12.116;2024-02-21T01:24:37;42.15;;;15.25;;
583;SDS011;27024;54.068;12.116;2024-02-21T01:27:04;42.22;;;16.38;;
583;SDS011;27024;54.068;12.116;2024-02-21T01:29:31;39.97;;;14.57;;
583;SDS011;27024;54.068;12.116;2024-02-21T01:31:58;38.92;;;14.85;;
583;SDS011;27024;54.068;12.116;2024-02-21T01:34:25;52.15;;;15.88;;
583;SDS011;27024;54.068;12.116;2024-02-21T01:36:54;46.63;;;13.90;;
583;SDS011;27024;54.068;12.116;2024-02-21T01:39:21;42.45;;;16.15;;
583;SDS011;27024;54.068;12.116;2024-02-21T01:41:48;42.60;;;15.38;;
583;SDS011;27024;54.068;12.116;2024-02-21T01:44:15;45.03;;;16.42;;
583;SDS011;27024;54.068;12.116;2024-02-21T01:46:42;40.67;;;15.32;;
583;SDS011;27024;54.068;12.116;2024-02-21T01:49:10;29.48;;;12.73;;
583;SDS011;27024;54.068;12.116;2024-02-21T01:51:37;30.10;;;12.38;;
583;SDS011;27024;54.068;12.116;2024-02-21T01:54:05;41.33;;;15.10;;
583;SDS011;27024;54.068;12.116;2024-02-21T01:56:32;40.70;;;16.35;;
583;SDS011;27024;54.068;12.116;2024-02-21T01:59:00;42.33;;;14.10;;
583;SDS011;27024;54.068;12.116;2024-02-21T02:01:29;32.33;;;14.02;;
583;SDS011;27024;54.068;12.116;2024-02-21T02:03:57;45.45;;;14.85;;
583;SDS011;27024;54.068;12.116;2024-02-21T02:06:25;47.28;;;16.13;;
583;SDS011;27024;54.068;12.116;2024-02-21T02:08:53;40.08;;;14.85;;
583;SDS011;27024;54.068;12.116;2024-02-21T02:11:21;41.97;;;16.05;;
583;SDS011;27024;54.068;12.116;2024-02-21T02:13:48;35.17;;;12.68;;
583;SDS011;27024;54.068;12.116;2024-02-21T02:16:15;21.80;;;9.57;;
583;SDS011;27024;54.068;12.116;2024-02-21T02:18:42;36.88;;;16.00;;
583;SDS011;27024;54.068;12.116;2024-02-21T02:21:11;40.92;;;15.38;;
583;SDS011;27024;54.068;12.116;2024-02-21T02:23:48;39.00;;;13.23;;
583;SDS011;27024;54.068;12.116;2024-02-21T02:26:15;41.92;;;15.05;;
583;SDS011;27024;54.068;12.116;2024-02-21T02:28:42;39.97;;;16.70;;
583;SDS011;27024;54.068;12.116;2024-02-21T02:31:08;44.08;;;17.55;;
583;SDS011;27024;54.068;12.116;2024-02-21T02:33:36;31.27;;;11.85;;
583;SDS011;27024;54.068;12.116;2024-02-21T02:36:03;35.28;;;13.40;;
583;SDS011;27024;54.068;12.116;2024-02-21T02:38:30;48.95;;;16.45;;
583;SDS011;27024;54.068;12.116;2024-02-21T02:40:57;43.65;;;15.27;;
583;SDS011;27024;54.068;12.116;2024-02-21T02:43:24;42.65;;;16.63;;
583;SDS011;27024;54.068;12.116;2024-02-21T02:45:51;41.75;;;15.85;;
583;SDS011;27024;54.068;12.116;2024-02-21T02:48:18;43.58;;;16.05;;
583;SDS011;27024;54.068;12.116;2024-02-21T02:50:46;40.90;;;14.38;;
583;SDS011;27024;54.068;12.116;2024-02-21T02:53:13;42.10;;;14.73;;
583;SDS011;27024;54.068;12.116;2024-02-21T02:55:40;43.15;;;15.68;;
583;SDS011;27024;54.068;12.116;2024-02-21T02:58:07;45.58;;;15.93;;
583;SDS011;27024;54.068;12.116;2024-02-21T03:00:35;40.97;;;15.88;;
583;SDS011;27024;54.068;12.116;2024-02-21T03:03:03;33.55;;;13.55;;
583;SDS011;27024;54.068;12.116;2024-02-21T03:05:30;43.03;;;16.88;;
583;SDS011;27024;54.068;12.116;2024-02-21T03:07:58;43.60;;;15.63;;
583;SDS011;27024;54.068;12.116;2024-02-21T03:10:25;49.10;;;17.50;;
583;SDS011;27024;54.068;12.116;2024-02-21T03:12:52;38.85;;;14.43;;
583;SDS011;27024;54.068;12.116;2024-02-21T03:15:20;45.45;;;17.05;;
583;SDS011;27024;54.068;12.116;2024-02-21T03:17:47;32.22;;;12.30;;
583;SDS011;27024;54.068;12.116;2024-02-21T03:20:14;46.58;;;16.63;;
583;SDS011;27024;54.068;12.116;2024-02-21T03:22:42;38.13;;;15.63;;
583;SDS011;27024;54.068;12.116;2024-02-21T03:25:09;39.08;;;15.32;;
583;SDS011;27024;54.068;12.116;2024-02-21T03:27:37;38.83;;;15.65;;
583;SDS011;27024;54.068;12.116;2024-02-21T03:30:06;41.13;;;15.68;;
583;SDS011;27024;54.068;12.116;2024-02-21T03:32:33;39.70;;;14.55;;
583;SDS011;27024;54.068;12.116;2024-02-21T03:35:00;40.58;;;15.10;;
583;SDS011;27024;54.068;12.116;2024-02-21T03:37:27;37.60;;;14.25;;
583;SDS011;27024;54.068;12.116;2024-02-21T03:39:54;37.97;;;14.05;;
583;SDS011;27024;54.068;12.116;2024-02-21T03:42:22;32.75;;;11.35;;
583;SDS011;27024;54.068;12.116;2024-02-21T03:44:49;38.67;;;13.45;;
583;SDS011;27024;54.068;12.116;2024-02-21T03:47:16;30.48;;;11.05;;
583;SDS011;27024;54.068;12.116;2024-02-21T03:49:43;35.03;;;12.85;;
583;SDS011;27024;54.068;12.116;2024-02-21T03:52:10;33.80;;;12.27;;
583;SDS011;27024;54.068;12.116;2024-02-21T03:54:37;37.72;;;13.73;;
583;SDS011;27024;54.068;12.116;2024-02-21T03:57:04;32.47;;;13.15;;
583;SDS011;27024;54.068;12.116;2024-02-21T03:59:32;31.17;;;13.02;;
583;SDS011;27024;54.068;12.116;2024-02-21T04:01:58;34.88;;;13.63;;
583;SDS011;27024;54.068;12.116;2024-02-21T04:04:26;32.83;;;12.77;;
583;SDS011;27024;54.068;12.116;2024-02-21T04:06:53;34.20;;;12.73;;
583;SDS011;27024;54.068;12.116;2024-02-21T04:09:20;34.28;;;12.57;;
583;SDS011;27024;54.068;12.116;2024-02-21T04:11:47;28.67;;;11.77;;
583;SDS011;27024;54.068;12.116;2024-02-21T04:14:14;27.05;;;10.98;;
583;SDS011;27024;54.068;12.116;2024-02-21T04:16:40;28.80;;;11.52;;
583;SDS011;27024;54.068;12.116;2024-02-21T04:19:07;30.60;;;10.95;;
583;SDS011;27024;54.068;12.116;2024-02-21T04:21:35;26.52;;;11.30;;
583;SDS011;27024;54.068;12.116;2024-02-21T04:24:02;28.48;;;11.63;;
583;SDS011;27024;54.068;12.116;2024-02-21T04:26:33;27.02;;;10.85;;
583;SDS011;27024;54.068;12.116;2024-02-21T04:29:01;28.60;;;11.32;;
583;SDS011;27024;54.068;12.116;2024-02-21T04:31:28;29.40;;;11.27;;
583;SDS011;27024;54.068;12.116;2024-02-21T04:33:56;23.23;;;10.45;;
583;SDS011;27024;54.068;12.116;2024-02-21T04:36:23;26.65;;;11.60;;
583;SDS011;27024;54.068;12.116;2024-02-21T04:38:51;24.30;;;10.90;;
583;SDS011;27024;54.068;12.116;2024-02-21T04:41:17;31.35;;;12.35;;
583;SDS011;27024;54.068;12.116;2024-02-21T04:43:48;28.00;;;12.48;;
583;SDS011;27024;54.068;12.116;2024-02-21T04:46:15;32.53;;;12.07;;
583;SDS011;27024;54.068;12.116;2024-02-21T04:48:42;28.35;;;11.32;;
583;SDS011;27024;54.068;12.116;2024-02-21T04:51:11;29.95;;;11.10;;
583;SDS011;27024;54.068;12.116;2024-02-21T04:53:40;28.95;;;12.45;;
583;SDS011;27024;54.068;12.116;2024-02-21T04:56:07;28.58;;;12.25;;
583;SDS011;27024;54.068;12.116;2024-02-21T04:58:37;28.50;;;11.68;;
583;SDS011;27024;54.068;12.116;2024-02-21T05:03:34;28.35;;;10.45;;
583;SDS011;27024;54.068;12.116;2024-02-21T05:06:01;28.98;;;12.18;;
583;SDS011;27024;54.068;12.116;2024-02-21T05:08:28;32.38;;;12.63;;
583;SDS011;27024;54.068;12.116;2024-02-21T05:10:55;28.58;;;12.63;;
583;SDS011;27024;54.068;12.116;2024-02-21T05:13:23;27.90;;;12.35;;
583;SDS011;27024;54.068;12.116;2024-02-21T05:15:50;34.63;;;12.90;;
583;SDS011;27024;54.068;12.116;2024-02-21T05:18:17;28.02;;;12.15;;
583;SDS011;27024;54.068;12.116;2024-02-21T05:20:44;30.85;;;12.77;;
583;SDS011;27024;54.068;12.116;2024-02-21T05:23:11;30.77;;;12.40;;
583;SDS011;27024;54.068;12.116;2024-02-21T05:25:38;33.10;;;12.15;;
583;SDS011;27024;54.068;12.116;2024-02-21T05:28:05;36.75;;;13.30;;
583;SDS011;27024;54.068;12.116;2024-02-21T05:30:33;34.20;;;12.68;;
583;SDS011;27024;54.068;12.116;2024-02-21T05:33:04;34.72;;;13.07;;
583;SDS011;27024;54.068;12.116;2024-02-21T05:35:32;31.42;;;12.77;;
583;SDS011;27024;54.068;12.116;2024-02-21T05:37:59;35.88;;;13.38;;
583;SDS011;27024;54.068;12.116;2024-02-21T05:40:26;36.47;;;13.95;;
583;SDS011;27024;54.068;12.116;2024-02-21T05:42:53;35.28;;;13.55;;
583;SDS011;27024;54.068;12.116;2024-02-21T05:45:20;34.35;;;13.13;;
583;SDS011;27024;54.068;12.116;2024-02-21T05:47:47;38.25;;;14.35;;
583;SDS011;27024;54.068;12.116;2024-02-21T05:50:14;43.00;;;13.93;;
583;SDS011;27024;54.068;12.116;2024-02-21T05:52:41;31.83;;;12.43;;
583;SDS011;27024;54.068;12.116;2024-02-21T05:55:08;40.08;;;13.55;;
583;SDS011;27024;54.068;12.116;2024-02-21T05:57:35;39.65;;;14.15;;
583;SDS011;27024;54.068;12.116;2024-02-21T06:00:03;38.90;;;13.70;;
583;SDS011;27024;54.068;12.116;2024-02-21T06:02:31;36.88;;;14.00;;
583;SDS011;27024;54.068;12.116;2024-02-21T06:04:59;40.90;;;14.48;;
583;SDS011;27024;54.068;12.116;2024-02-21T06:07:26;38.42;;;13.55;;
583;SDS011;27024;54.068;12.116;2024-02-21T06:09:53;29.67;;;10.57;;
583;SDS011;27024;54.068;12.116;2024-02-21T06:12:20;28.65;;;9.70;;
583;SDS011;27024;54.068;12.116;2024-02-21T06:14:47;13.55;;;5.38;;
583;SDS011;27024;54.068;12.116;2024-02-21T06:17:14;8.40;;;2.97;;
583;SDS011;27024;54.068;12.116;2024-02-21T06:19:42;6.72;;;1.52;;
583;SDS011;27024;54.068;12.116;2024-02-21T06:22:11;7.05;;;1.20;;
583;SDS011;27024;54.068;12.116;2024-02-21T06:24:38;3.97;;;1.10;;
583;SDS011;27024;54.068;12.116;2024-02-21T06:27:05;5.75;;;1.55;;
583;SDS011;27024;54.068;12.116;2024-02-21T06:29:36;5.95;;;2.00;;
583;SDS011;27024;54.068;12.116;2024-02-21T06:32:03;7.20;;;3.00;;
583;SDS011;27024;54.068;12.116;2024-02-21T06:34:31;9.02;;;2.70;;
583;SDS011;27024;54.068;12.116;2024-02-21T06:37:00;8.13;;;2.85;;
583;SDS011;27024;54.068;12.116;2024-02-21T06:39:27;8.23;;;2.65;;
583;SDS011;27024;54.068;12.116;2024-02-21T06:41:56;10.88;;;2.58;;
583;SDS011;27024;54.068;12.116;2024-02-21T06:44:29;12.75;;;3.45;;
583;SDS011;27024;54.068;12.116;2024-02-21T06:46:56;15.10;;;3.40;;
583;SDS011;27024;54.068;12.116;2024-02-21T06:49:23;12.90;;;3.08;;
583;SDS011;27024;54.068;12.116;2024-02-21T06:51:50;8.80;;;2.50;;
583;SDS011;27024;54.068;12.116;2024-02-21T06:54:17;8.90;;;2.00;;
583;SDS011;27024;54.068;12.116;2024-02-21T06:56:45;4.03;;;1.77;;
583;SDS011;27024;54.068;12.116;2024-02-21T06:59:11;8.38;;;2.35;;
583;SDS011;27024;54.068;12.116;2024-02-21T07:01:46;7.07;;;1.88;;
583;SDS011;27024;54.068;12.116;2024-02-21T07:04:15;5.53;;;2.00;;
583;SDS011;27024;54.068;12.116;2024-02-21T07:06:42;6.28;;;2.28;;
583;SDS011;27024;54.068;12.116;2024-02-21T07:09:09;10.77;;;2.25;;
583;SDS011;27024;54.068;12.116;2024-02-21T07:11:36;7.55;;;2.00;;
583;SDS011;27024;54.068;12.116;2024-02-21T07:14:03;11.65;;;2.13;;
583;SDS011;27024;54.068;12.116;2024-02-21T07:16:31;8.05;;;1.55;;
583;SDS011;27024;54.068;12.116;2024-02-21T07:19:00;11.50;;;2.10;;
583;SDS011;27024;54.068;12.116;2024-02-21T07:21:27;6.45;;;1.48;;
583;SDS011;27024;54.068;12.116;2024-02-21T07:23:54;6.70;;;1.92;;
583;SDS011;27024;54.068;12.116;2024-02-21T07:26:21;13.82;;;2.55;;
583;SDS011;27024;54.068;12.116;2024-02-21T07:28:49;7.78;;;2.03;;
583;SDS011;27024;54.068;12.116;2024-02-21T07:31:16;10.38;;;2.20;;
583;SDS011;27024;54.068;12.116;2024-02-21T07:33:44;8.43;;;1.42;;
583;SDS011;27024;54.068;12.116;2024-02-21T07:36:11;9.65;;;1.85;;
583;SDS011;27024;54.068;12.116;2024-02-21T07:38:40;5.18;;;1.45;;
583;SDS011;27024;54.068;12.116;2024-02-21T07:41:08;9.02;;;1.40;;
583;SDS011;27024;54.068;12.116;2024-02-21T07:43:35;10.20;;;0.98;;
583;SDS011;27024;54.068;12.116;2024-02-21T07:46:02;5.47;;;1.40;;
583;SDS011;27024;54.068;12.116;2024-02-21T07:48:30;7.28;;;0.95;;
583;SDS011;27024;54.068;12.116;2024-02-21T07:51:01;6.65;;;0.98;;
583;SDS011;27024;54.068;12.116;2024-02-21T07:53:28;5.57;;;0.90;;
583;SDS011;27024;54.068;12.116;2024-02-21T07:55:55;8.88;;;1.25;;
583;SDS011;27024;54.068;12.116;2024-02-21T07:58:22;6.68;;;1.13;;
583;SDS011;27024;54.068;12.116;2024-02-21T08:00:49;11.60;;;2.28;;
583;SDS011;27024;54.068;12.116;2024-02-21T08:03:16;4.93;;;1.10;;
583;SDS011;27024;54.068;12.116;2024-02-21T08:05:44;5.82;;;0.80;;
583;SDS011;27024;54.068;12.116;2024-02-21T08:08:12;8.20;;;0.90;;
583;SDS011;27024;54.068;12.116;2024-02-21T08:10:45;5.25;;;0.70;;
583;SDS011;27024;54.068;12.116;2024-02-21T08:13:12;6.60;;;1.42;;
583;SDS011;27024;54.068;12.116;2024-02-21T08:15:39;8.98;;;1.05;;
583;SDS011;27024;54.068;12.116;2024-02-21T08:18:08;4.88;;;0.93;;
583;SDS011;27024;54.068;12.116;2024-02-21T08:20:36;10.10;;;1.23;;
583;SDS011;27024;54.068;12.116;2024-02-21T08:23:03;4.85;;;0.80;;
583;SDS011;27024;54.068;12.116;2024-02-21T08:25:30;8.05;;;1.35;;
583;SDS011;27024;54.068;12.116;2024-02-21T08:27:57;6.57;;;0.75;;
583;SDS011;27024;54.068;12.116;2024-02-21T08:30:26;6.30;;;0.90;;
583;SDS011;27024;54.068;12.116;2024-02-21T08:32:53;5.90;;;0.70;;
583;SDS011;27024;54.068;12.116;2024-02-21T08:35:21;3.60;;;0.70;;
583;SDS011;27024;54.068;12.116;2024-02-21T08:37:51;6.88;;;1.63;;
583;SDS011;27024;54.068;12.116;2024-02-21T08:40:19;5.07;;;1.15;;
583;SDS011;27024;54.068;12.116;2024-02-21T08:42:48;2.92;;;0.63;;
583;SDS011;27024;54.068;12.116;2024-02-21T08:45:16;4.60;;;0.70;;
583;SDS011;27024;54.068;12.116;2024-02-21T08:47:43;3.03;;;0.60;;
583;SDS011;27024;54.068;12.116;2024-02-21T08:50:11;4.18;;;0.80;;
583;SDS011;27024;54.068;12.116;2024-02-21T08:52:53;5.15;;;1.20;;
583;SDS011;27024;54.068;12.116;2024-02-21T08:55:21;5.50;;;0.77;;
583;SDS011;27024;54.068;12.116;2024-02-21T08:57:49;4.38;;;0.80;;
583;SDS011;27024;54.068;12.116;2024-02-21T09:00:16;6.97;;;0.80;;
583;SDS011;27024;54.068;12.116;2024-02-21T09:02:44;6.97;;;0.88;;
583;SDS011;27024;54.068;12.116;2024-02-21T09:05:11;5.65;;;0.80;;
583;SDS011;27024;54.068;12.116;2024-02-21T09:07:38;6.47;;;0.73;;
583;SDS011;27024;54.068;12.116;2024-02-21T09:10:06;5.32;;;1.13;;
583;SDS011;27024;54.068;12.116;2024-02-21T09:12:33;5.53;;;1.23;;
583;SDS011;27024;54.068;12.116;2024-02-21T09:15:00;5.85;;;1.20;;
583;SDS011;27024;54.068;12.116;2024-02-21T09:17:27;4.10;;;0.90;;
583;SDS011;27024;54.068;12.116;2024-02-21T09:19:56;3.55;;;0.95;;
583;SDS011;27024;54.068;12.116;2024-02-21T09:22:26;4.13;;;1.00;;
583;SDS011;27024;54.068;12.116;2024-02-21T09:24:54;5.07;;;1.02;;
583;SDS011;27024;54.068;12.116;2024-02-21T09:27:21;7.68;;;1.33;;
583;SDS011;27024;54.068;12.116;2024-02-21T09:29:49;5.30;;;0.75;;
583;SDS011;27024;54.068;12.116;2024-02-21T09:32:16;4.72;;;0.70;;
583;SDS011;27024;54.068;12.116;2024-02-21T09:34:45;5.15;;;0.82;;
583;SDS011;27024;54.068;12.116;2024-02-21T09:37:13;4.20;;;0.73;;
583;SDS011;27024;54.068;12.116;2024-02-21T09:39:40;5.95;;;1.00;;
583;SDS011;27024;54.068;12.116;2024-02-21T09:42:07;4.53;;;1.00;;
583;SDS011;27024;54.068;12.116;2024-02-21T09:44:37;5.57;;;0.70;;
583;SDS011;27024;54.068;12.116;2024-02-21T09:47:10;4.90;;;0.82;;
583;SDS011;27024;54.068;12.116;2024-02-21T09:49:42;4.32;;;0.75;;
583;SDS011;27024;54.068;12.116;2024-02-21T09:52:11;6.80;;;1.65;;
583;SDS011;27024;54.068;12.116;2024-02-21T09:54:41;5.50;;;0.90;;
583;SDS011;27024;54.068;12.116;2024-02-21T09:57:11;2.17;;;0.60;;
583;SDS011;27024;54.068;12.116;2024-02-21T09:59:40;6.40;;;0.73;;
583;SDS011;27024;54.068;12.116;2024-02-21T10:02:08;3.30;;;0.95;;
583;SDS011;27024;54.068;12.116;2024-02-21T10:04:36;5.15;;;0.60;;
583;SDS011;27024;54.068;12.116;2024-02-21T10:07:03;3.92;;;0.50;;
583;SDS011;27024;54.068;12.116;2024-02-21T10:09:31;3.33;;;0.70;;
583;SDS011;27024;54.068;12.116;2024-02-21T10:12:08;6.30;;;1.27;;
583;SDS011;27024;54.068;12.116;2024-02-21T10:14:38;4.40;;;0.45;;
583;SDS011;27024;54.068;12.116;2024-02-21T10:17:04;3.13;;;0.50;;
583;SDS011;27024;54.068;12.116;2024-02-21T10:19:37;2.60;;;0.40;;
583;SDS011;27024;54.068;12.116;2024-02-21T10:22:07;3.35;;;0.50;;
583;SDS011;27024;54.068;12.116;2024-02-21T10:24:36;4.07;;;0.50;;
583;SDS011;27024;54.068;12.116;2024-02-21T10:27:12;4.10;;;1.27;;
583;SDS011;27024;54.068;12.116;2024-02-21T10:29:40;2.33;;;0.52;;
583;SDS011;27024;54.068;12.116;2024-02-21T10:32:09;2.83;;;0.60;;
583;SDS011;27024;54.068;12.116;2024-02-21T10:34:39;5.30;;;0.57;;
583;SDS011;27024;54.068;12.116;2024-02-21T10:37:09;3.63;;;0.93;;
583;SDS011;27024;54.068;12.116;2024-02-21T10:39:40;4.70;;;0.55;;
583;SDS011;27024;54.068;12.116;2024-02-21T10:42:10;4.93;;;0.60;;
583;SDS011;27024;54.068;12.116;2024-02-21T10:44:39;4.05;;;0.50;;
583;SDS011;27024;54.068;12.116;2024-02-21T10:47:08;4.85;;;0.50;;
583;SDS011;27024;54.068;12.116;2024-02-21T10:49:41;4.38;;;1.23;;
583;SDS011;27024;54.068;12.116;2024-02-21T10:55:03;4.70;;;0.60;;
583;SDS011;27024;54.068;12.116;2024-02-21T10:57:31;3.47;;;0.40;;
583;SDS011;27024;54.068;12.116;2024-02-21T10:59:58;4.10;;;0.50;;
583;SDS011;27024;54.068;12.116;2024-02-21T11:02:26;4.78;;;0.88;;
583;SDS011;27024;54.068;12.116;2024-02-21T11:04:57;5.82;;;0.90;;
583;SDS011;27024;54.068;12.116;2024-02-21T11:07:25;4.70;;;0.70;;
583;SDS011;27024;54.068;12.116;2024-02-21T11:09:53;4.40;;;0.63;;
583;SDS011;27024;54.068;12.116;2024-02-21T11:12:23;4.60;;;0.75;;
583;SDS011;27024;54.068;12.116;2024-02-21T11:14:52;5.55;;;1.40;;
583;SDS011;27024;54.068;12.116;2024-02-21T11:17:31;4.80;;;0.50;;
583;SDS011;27024;54.068;12.116;2024-02-21T11:19:58;4.93;;;0.90;;
583;SDS011;27024;54.068;12.116;2024-02-21T11:22:26;4.97;;;0.80;;
583;SDS011;27024;54.068;12.116;2024-02-21T11:25:06;4.85;;;0.73;;
583;SDS011;27024;54.068;12.116;2024-02-21T11:27:36;5.60;;;0.77;;
583;SDS011;27024;54.068;12.116;2024-02-21T11:30:04;6.45;;;0.68;;
583;SDS011;27024;54.068;12.116;2024-02-21T11:32:32;7.50;;;0.80;;
583;SDS011;27024;54.068;12.116;2024-02-21T11:35:00;3.80;;;0.60;;
583;SDS011;27024;54.068;12.116;2024-02-21T11:37:35;6.38;;;0.68;;
583;SDS011;27024;54.068;12.116;2024-02-21T11:40:06;3.78;;;0.85;;
583;SDS011;27024;54.068;12.116;2024-02-21T11:42:38;4.57;;;0.68;;
583;SDS011;27024;54.068;12.116;2024-02-21T11:45:06;4.80;;;0.90;;
583;SDS011;27024;54.068;12.116;2024-02-21T11:47:33;7.45;;;1.17;;
583;SDS011;27024;54.068;12.116;2024-02-21T11:50:00;4.70;;;0.82;;
583;SDS011;27024;54.068;12.116;2024-02-21T11:52:28;4.68;;;0.50;;
583;SDS011;27024;54.068;12.116;2024-02-21T11:54:55;4.82;;;0.60;;
583;SDS011;27024;54.068;12.116;2024-02-21T11:57:31;6.00;;;0.90;;
583;SDS011;27024;54.068;12.116;2024-02-21T11:59:58;5.03;;;0.60;;
583;SDS011;27024;54.068;12.116;2024-02-21T12:02:28;7.65;;;0.90;;
583;SDS011;27024;54.068;12.116;2024-02-21T12:04:56;5.90;;;0.80;;
583;SDS011;27024;54.068;12.116;2024-02-21T12:07:23;7.43;;;0.95;;
583;SDS011;27024;54.068;12.116;2024-02-21T12:09:51;4.78;;;0.70;;
583;SDS011;27024;54.068;12.116;2024-02-21T12:12:21;7.45;;;0.70;;
583;SDS011;27024;54.068;12.116;2024-02-21T12:14:53;5.78;;;0.77;;
583;SDS011;27024;54.068;12.116;2024-02-21T12:17:27;3.63;;;0.50;;
583;SDS011;27024;54.068;12.116;2024-02-21T12:19:54;4.32;;;0.80;;
583;SDS011;27024;54.068;12.116;2024-02-21T12:22:21;7.15;;;0.70;;
583;SDS011;27024;54.068;12.116;2024-02-21T12:24:48;5.40;;;0.85;;
583;SDS011;27024;54.068;12.116;2024-02-21T12:27:15;4.97;;;0.57;;
583;SDS011;27024;54.068;12.116;2024-02-21T12:29:42;4.78;;;0.70;;
583;SDS011;27024;54.068;12.116;2024-02-21T12:32:10;6.32;;;0.75;;
583;SDS011;27024;54.068;12.116;2024-02-21T12:34:37;11.10;;;0.90;;
583;SDS011;27024;54.068;12.116;2024-02-21T12:37:19;5.60;;;0.95;;
583;SDS011;27024;54.068;12.116;2024-02-21T12:39:49;3.65;;;0.60;;
583;SDS011;27024;54.068;12.116;2024-02-21T12:42:16;7.18;;;0.80;;
583;SDS011;27024;54.068;12.116;2024-02-21T12:44:44;4.47;;;0.70;;
583;SDS011;27024;54.068;12.116;2024-02-21T12:47:11;9.95;;;1.00;;
583;SDS011;27024;54.068;12.116;2024-02-21T12:49:38;4.38;;;0.63;;
583;SDS011;27024;54.068;12.116;2024-02-21T12:52:11;4.50;;;0.68;;
583;SDS011;27024;54.068;12.116;2024-02-21T12:54:38;3.80;;;0.40;;
583;SDS011;27024;54.068;12.116;2024-02-21T12:57:05;3.53;;;0.30;;
583;SDS011;27024;54.068;12.116;2024-02-21T12:59:32;4.22;;;0.88;;
583;SDS011;27024;54.068;12.116;2024-02-21T13:01:59;3.88;;;0.65;;
583;SDS011;27024;54.068;12.116;2024-02-21T13:04:27;3.88;;;0.50;;
583;SDS011;27024;54.068;12.116;2024-02-21T13:06:54;4.25;;;0.60;;
583;SDS011;27024;54.068;12.116;2024-02-21T13:09:22;6.32;;;0.73;;
583;SDS011;27024;54.068;12.116;2024-02-21T13:11:49;3.08;;;0.30;;
583;SDS011;27024;54.068;12.116;2024-02-21T13:14:18;3.55;;;0.45;;
583;SDS011;27024;54.068;12.116;2024-02-21T13:16:45;4.50;;;0.88;;
583;SDS011;27024;54.068;12.116;2024-02-21T13:19:12;3.75;;;0.63;;
583;SDS011;27024;54.068;12.116;2024-02-21T13:24:11;3.50;;;0.60;;
583;SDS011;27024;54.068;12.116;2024-02-21T13:26:38;2.60;;;0.60;;
583;SDS011;27024;54.068;12.116;2024-02-21T13:29:05;4.45;;;0.55;;
583;SDS011;27024;54.068;12.116;2024-02-21T13:31:38;4.90;;;0.50;;
583;SDS011;27024;54.068;12.116;2024-02-21T13:34:05;2.95;;;1.00;;
583;SDS011;27024;54.068;12.116;2024-02-21T13:36:36;3.17;;;0.70;;
583;SDS011;27024;54.068;12.116;2024-02-21T13:39:03;3.72;;;0.75;;
583;SDS011;27024;54.068;12.116;2024-02-21T13:41:31;3.22;;;0.95;;
583;SDS011;27024;54.068;12.116;2024-02-21T13:44:00;2.17;;;0.73;;
583;SDS011;27024;54.068;12.116;2024-02-21T13:46:27;4.05;;;1.85;;
583;SDS011;27024;54.068;12.116;2024-02-21T13:48:56;2.25;;;0.90;;
583;SDS011;27024;54.068;12.116;2024-02-21T13:51:31;3.40;;;1.60;;
583;SDS011;27024;54.068;12.116;2024-02-21T13:53:59;2.53;;;1.05;;
583;SDS011;27024;54.068;12.116;2024-02-21T13:56:26;2.35;;;1.05;;
583;SDS011;27024;54.068;12.116;2024-02-21T13:58:53;2.80;;;1.00;;
583;SDS011;27024;54.068;12.116;2024-02-21T14:01:20;2.67;;;1.00;;
583;SDS011;27024;54.068;12.116;2024-02-21T14:03:47;3.60;;;1.25;;
583;SDS011;27024;54.068;12.116;2024-02-21T14:06:15;2.92;;;1.00;;
583;SDS011;27024;54.068;12.116;2024-02-21T14:08:41;3.17;;;1.20;;
583;SDS011;27024;54.068;12.116;2024-02-21T14:11:09;2.17;;;1.08;;
583;SDS011;27024;54.068;12.116;2024-02-21T14:13:36;3.92;;;1.60;;
583;SDS011;27024;54.068;12.116;2024-02-21T14:16:08;3.20;;;1.65;;
583;SDS011;27024;54.068;12.116;2024-02-21T14:18:37;4.40;;;2.30;;
583;SDS011;27024;54.068;12.116;2024-02-21T14:21:04;4.32;;;1.98;;
583;SDS011;27024;54.068;12.116;2024-02-21T14:23:31;5.45;;;2.60;;
583;SDS011;27024;54.068;12.116;2024-02-21T14:26:00;5.15;;;2.97;;
583;SDS011;27024;54.068;12.116;2024-02-21T14:28:27;5.80;;;3.03;;
583;SDS011;27024;54.068;12.116;2024-02-21T14:30:54;7.10;;;3.05;;
583;SDS011;27024;54.068;12.116;2024-02-21T14:33:24;6.72;;;3.30;;
583;SDS011;27024;54.068;12.116;2024-02-21T14:35:51;7.82;;;3.15;;
583;SDS011;27024;54.068;12.116;2024-02-21T14:38:19;6.20;;;2.83;;
583;SDS011;27024;54.068;12.116;2024-02-21T14:40:46;7.30;;;2.78;;
583;SDS011;27024;54.068;12.116;2024-02-21T14:43:13;5.00;;;2.60;;
583;SDS011;27024;54.068;12.116;2024-02-21T14:45:40;6.50;;;3.15;;
583;SDS011;27024;54.068;12.116;2024-02-21T14:48:07;7.38;;;3.10;;
583;SDS011;27024;54.068;12.116;2024-02-21T14:50:34;8.40;;;3.45;;
583;SDS011;27024;54.068;12.116;2024-02-21T14:53:01;6.65;;;3.22;;
583;SDS011;27024;54.068;12.116;2024-02-21T14:55:29;8.50;;;3.15;;
583;SDS011;27024;54.068;12.116;2024-02-21T14:57:56;8.25;;;3.50;;
583;SDS011;27024;54.068;12.116;2024-02-21T15:00:23;7.75;;;3.45;;
583;SDS011;27024;54.068;12.116;2024-02-21T15:02:56;11.32;;;3.40;;